Terminal Aerodrome Forecast
Issued by NWS Spokane, WA

Home | Current Version | Previous Version | Text Only | Print | Product List | Glossary On
Versions: 1 2 3 4 5 6 7 8 9 10 11 12 13 14 15 16 17 18 19 20 21 22 23 24 25 26 27 28 29 30 31 32 33 34 35 36 37 38 39 40 41 42 43 44 45 46 47 48 49 50
000
FTUS46 KOTX 242337
TAFEAT
TAF
KEAT 242337Z 2500/2524 VRB04KT P6SM FEW050 BKN100
     FM250300 32006KT P6SM FEW120
     FM251200 VRB02KT P6SM SCT007 BKN250
      TEMPO 2513/2517 BKN007 BKN250
     FM251800 11004KT P6SM SCT100 OVC150
     FM252200 12004KT P6SM VCSH OVC080=

USA.gov is the U.S. government's official web portal to all federal, state and local government web resources and services.